Delta Billie — WDE8059 — position and weather

sailwx.info

Track history (hours):
 
Tides and Currents Weather Stations Pressure Air Temp Water Temp Dewpoint Dewpoint Depression Visibility Wind Speed Wind Dir Waves Ship Positions

Delta Billie

Owner: Baydelta Maritime, San Francicso, CA. More information available from US FCC via Universal Licensing System and Coast Guard Vessel Documentation Center.

Last reported at 2017-Nov-22 21:55 UTC. Time now 2017-Nov-22 22:21 UTC.
Position N 38°03' W 122°11'.

Length 30 m; draft 5.5 m.

Type: Towing. MMSI: 367401030.

Date/timePositionNaut miles runAvg speedWind from/ knotsBaromVisibWave heightAir tempDewpointWater temp
2017-Nov-22 21:55N 38°03' W 122°11'511.7
2017-Nov-22 21:29N 38°03' W 122°18'611.3
2017-Nov-22 20:59N 38°01' W 122°24'511.1
2017-Nov-22 20:30N 37°55' W 122°26'1 1.1
2017-Nov-22 20:00N 37°56' W 122°25'3 6.3
2017-Nov-22 19:30N 37°52' W 122°25'  
2017-Nov-19 17:44N 38°02' W 122°08'1 4.5
2017-Nov-19 17:30N 38°02' W 122°10'1 2.3
2017-Nov-19 17:00N 38°02' W 122°08'0 0.0
2017-Nov-19 16:30N 38°02' W 122°08'0 0.0
2017-Nov-19 16:00N 38°02' W 122°08'0 0.0
2017-Nov-19 15:08N 38°02' W 122°08'0 0.1
2017-Nov-19 10:29N 38°02' W 122°08'0 0.3
2017-Nov-19 09:34N 38°02' W 122°08'0 0.0
2017-Nov-19 09:29N 38°02' W 122°08'0 0.0
2017-Nov-19 08:48N 38°02' W 122°08'0 0.0
2017-Nov-19 08:30N 38°02' W 122°08'0 0.0
2017-Nov-19 07:58N 38°02' W 122°08'0 0.0
2017-Nov-19 07:30N 38°02' W 122°08'1 1.1
2017-Nov-19 07:00N 38°02' W 122°08'0 0.0
2017-Nov-19 06:23N 38°02' W 122°08'2 2.9
2017-Nov-19 05:42N 38°02' W 122°10'2 8.3
2017-Nov-19 05:30N 38°03' W 122°12'4 8.1
2017-Nov-19 04:59N 38°03' W 122°17'510.1
2017-Nov-19 04:27N 38°01' W 122°23'510.4
2017-Nov-19 04:00N 37°57' W 122°27'510.3
2017-Nov-19 03:30N 37°52' W 122°25'4 7.8
2017-Nov-19 03:00N 37°49' W 122°28'2 3.9
2017-Nov-19 02:30N 37°48' W 122°30'0 0.9
2017-Nov-19 02:01N 37°48' W 122°30'0 0.1
2017-Nov-19 01:30N 37°48' W 122°30'1 2.2
2017-Nov-19 01:00N 37°48' W 122°30'3 6.6
2017-Nov-19 00:31N 37°51' W 122°28'3 5.3
2017-Nov-19 00:00N 37°54' W 122°26'5 7.9
2017-Nov-18 23:26N 37°58' W 122°26'4 8.6
2017-Nov-18 22:58N 38°01' W 122°23'3 7.2
2017-Nov-18 22:30N 38°03' W 122°19'5 9.7
2017-Nov-18 22:00N 38°04' W 122°13'4 3.3
2017-Nov-18 20:39N 38°02' W 122°08'0 2.5
2017-Nov-18 20:28N 38°02' W 122°08'2 5.3
2017-Nov-18 20:00N 38°03' W 122°11'5 9.8
2017-Nov-18 19:29N 38°03' W 122°17'6 9.0
2017-Nov-18 18:47N 38°01' W 122°25'311.3
2017-Nov-18 18:30N 37°58' W 122°27'510.7
2017-Nov-18 18:00N 37°53' W 122°25'4 7.8
2017-Nov-18 17:30N 37°49' W 122°28'2 4.3
2017-Nov-18 17:00N 37°48' W 122°30'0 0.3
2017-Nov-18 16:30N 37°48' W 122°30'3 6.0
2017-Nov-18 16:00N 37°49' W 122°26'2 4.1
2017-Nov-18 15:30N 37°48' W 122°24'0 0.0
2017-Nov-18 15:00N 37°48' W 122°24'0 0.0
2017-Nov-18 14:30N 37°48' W 122°24'0 0.0
2017-Nov-18 14:00N 37°48' W 122°24'0 0.0
2017-Nov-18 13:30N 37°48' W 122°24'0 0.0
2017-Nov-18 13:00N 37°48' W 122°24'0 0.0
2017-Nov-18 12:30N 37°48' W 122°24'0 0.0
2017-Nov-18 12:00N 37°48' W 122°24'0 0.0
2017-Nov-18 11:30N 37°48' W 122°24'0 0.0
2017-Nov-18 11:00N 37°48' W 122°24'0 0.0
2017-Nov-18 10:30N 37°48' W 122°24'0 0.0
2017-Nov-18 10:00N 37°48' W 122°24'0 0.0
2017-Nov-18 09:30N 37°48' W 122°24'0 0.0
2017-Nov-18 09:00N 37°48' W 122°24'0 0.0
2017-Nov-18 08:30N 37°48' W 122°24'0 0.0
2017-Nov-18 08:00N 37°48' W 122°24'0 0.0
2017-Nov-18 07:30N 37°48' W 122°24'0 0.0
2017-Nov-18 07:00N 37°48' W 122°24'0 0.0
2017-Nov-18 06:30N 37°48' W 122°24'0 0.0
2017-Nov-18 06:00N 37°48' W 122°24'0 0.0
2017-Nov-18 05:30N 37°48' W 122°24'0 0.0
2017-Nov-18 05:00N 37°48' W 122°24'0 0.0
2017-Nov-18 04:30N 37°48' W 122°24'0 0.0
2017-Nov-18 04:00N 37°48' W 122°24'0 0.0
2017-Nov-18 03:30N 37°48' W 122°24'0 0.0
2017-Nov-18 03:00N 37°48' W 122°24'0 0.0
2017-Nov-18 02:30N 37°48' W 122°24'0 0.0
2017-Nov-18 02:00N 37°48' W 122°24'3 5.1
2017-Nov-18 01:31N 37°48' W 122°21'2 4.9
2017-Nov-18 01:00N 37°48' W 122°18'0 0.1
2017-Nov-18 00:31N 37°48' W 122°18'1 1.0
2017-Nov-18 00:01N 37°48' W 122°18'2 3.0
2017-Nov-17 23:30N 37°48' W 122°20'3 5.8
2017-Nov-17 23:00N 37°48' W 122°24'0 0.0
2017-Nov-17 22:30N 37°48' W 122°24'0 0.0
2017-Nov-17 22:00N 37°48' W 122°24'0 0.0
2017-Nov-17 21:30N 37°48' W 122°24'0 0.0
2017-Nov-17 21:00N 37°48' W 122°24'0 0.0
2017-Nov-17 20:30N 37°48' W 122°24'0 0.0
2017-Nov-17 20:00N 37°48' W 122°24'0 0.0
2017-Nov-17 19:30N 37°48' W 122°24'0 0.0
2017-Nov-17 19:00N 37°48' W 122°24'0 0.0
2017-Nov-17 18:30N 37°48' W 122°24'0 0.0
2017-Nov-17 18:00N 37°48' W 122°24'0 0.0
2017-Nov-17 17:30N 37°48' W 122°24'0 0.0
2017-Nov-17 17:00N 37°48' W 122°24'0 0.0
2017-Nov-17 16:30N 37°48' W 122°24'0 0.0
2017-Nov-17 16:00N 37°48' W 122°24'2 3.5
2017-Nov-17 15:30N 37°50' W 122°24'4 8.6
2017-Nov-17 15:00N 37°54' W 122°25'3 5.3
2017-Nov-17 14:30N 37°55' W 122°22'0 0.0
2017-Nov-17 13:58N 37°55' W 122°22'0 0.0
2017-Nov-17 13:30N 37°55' W 122°22'0 0.0
2017-Nov-17 13:00N 37°55' W 122°22'0 0.0
2017-Nov-17 12:30N 37°55' W 122°22'0 0.4
2017-Nov-17 12:00N 37°55' W 122°22'0 0.2
2017-Nov-17 11:30N 37°55' W 122°22'0 0.0
2017-Nov-17 11:00N 37°55' W 122°22'0 0.0
2017-Nov-17 10:30N 37°55' W 122°22'0 0.0
2017-Nov-17 10:00N 37°55' W 122°22'0 0.0
2017-Nov-17 09:30N 37°55' W 122°22'0 0.0
2017-Nov-17 09:00N 37°55' W 122°22'0 0.0
2017-Nov-17 08:30N 37°55' W 122°22'0 0.0
2017-Nov-17 08:00N 37°55' W 122°22'0 0.0
2017-Nov-17 07:30N 37°55' W 122°22'0 0.0
2017-Nov-17 07:00N 37°55' W 122°22'0 0.0
2017-Nov-17 06:30N 37°55' W 122°22'3 6.3
2017-Nov-17 06:00N 37°53' W 122°25'5 9.3
2017-Nov-17 05:30N 37°48' W 122°24'0 0.0
2017-Nov-17 05:00N 37°48' W 122°24'0 0.0
2017-Nov-17 04:30N 37°48' W 122°24'0 0.0
2017-Nov-17 04:00N 37°48' W 122°24'0 0.0
2017-Nov-17 03:30N 37°48' W 122°24'0 0.0
2017-Nov-17 03:00N 37°48' W 122°24'0 0.0
2017-Nov-17 02:30N 37°48' W 122°24'0 0.0
2017-Nov-17 02:00N 37°48' W 122°24'0 0.0
2017-Nov-17 01:30N 37°48' W 122°24'0 0.0
2017-Nov-17 01:00N 37°48' W 122°24'0 0.0
2017-Nov-17 00:30N 37°48' W 122°24'0 0.0
2017-Nov-17 00:00N 37°48' W 122°24'0 0.0
2017-Nov-16 23:30N 37°48' W 122°24'0 0.0
2017-Nov-16 23:00N 37°48' W 122°24'0 0.0
2017-Nov-16 22:30N 37°48' W 122°24'0 0.0
2017-Nov-16 22:00N 37°48' W 122°24'0 0.0
2017-Nov-16 21:30N 37°48' W 122°24'0 0.0
2017-Nov-16 21:00N 37°48' W 122°24'0 0.0
2017-Nov-16 20:30N 37°48' W 122°24'0 0.0
2017-Nov-16 20:00N 37°48' W 122°24'0 0.0
2017-Nov-16 19:30N 37°48' W 122°24'0 0.0
2017-Nov-16 19:00N 37°48' W 122°24'0 0.0
2017-Nov-16 18:30N 37°48' W 122°24'0 0.1
2017-Nov-16 18:00N 37°48' W 122°24'0 0.1
2017-Nov-16 17:30N 37°48' W 122°24'0 0.0
2017-Nov-16 17:00N 37°48' W 122°24'0 0.0
2017-Nov-16 16:30N 37°48' W 122°24'0 0.0
2017-Nov-16 16:00N 37°48' W 122°24'0 0.0
2017-Nov-16 15:30N 37°48' W 122°24'0 0.0
2017-Nov-16 15:00N 37°48' W 122°24'0 0.0
2017-Nov-16 14:30N 37°48' W 122°24'0 0.0
2017-Nov-16 14:00N 37°48' W 122°24'0 0.0
2017-Nov-16 13:30N 37°48' W 122°24'1 1.5
2017-Nov-16 13:01N 37°48' W 122°23'3 6.8
2017-Nov-16 12:30N 37°48' W 122°19'1 1.7
2017-Nov-16 12:00N 37°48' W 122°20'3 5.7
2017-Nov-16 11:30N 37°48' W 122°23'1 1.0
2017-Nov-16 11:00N 37°48' W 122°24'0 0.0
2017-Nov-16 10:30N 37°48' W 122°24'0 0.0
2017-Nov-16 10:00N 37°48' W 122°24'0 0.0
2017-Nov-16 09:30N 37°48' W 122°24'0 0.0
2017-Nov-16 09:00N 37°48' W 122°24'0 0.0
2017-Nov-16 08:30N 37°48' W 122°24'0 0.0
2017-Nov-16 08:00N 37°48' W 122°24'4 8.6
2017-Nov-16 07:30N 37°52' W 122°24'8 9.1
2017-Nov-16 06:40N 38°00' W 122°25'1 9.4
2017-Nov-16 06:30N 38°01' W 122°23'5 9.1
2017-Nov-16 06:00N 38°03' W 122°18'2 3.8
2017-Nov-16 05:30N 38°03' W 122°16'0 0.0
2017-Nov-16 05:00N 38°03' W 122°16'0 0.0
2017-Nov-16 04:30N 38°03' W 122°16'1 2.7
2017-Nov-16 03:58N 38°03' W 122°18'510.6
2017-Nov-16 03:27N 38°01' W 122°24'511.0
2017-Nov-16 02:59N 37°56' W 122°27'510.3
2017-Nov-16 02:30N 37°52' W 122°25'3 7.0
2017-Nov-16 02:00N 37°49' W 122°28'3 5.8
2017-Nov-16 01:30N 37°49' W 122°31'0 0.4
2017-Nov-16 01:00N 37°49' W 122°31'0 0.6
2017-Nov-16 00:30N 37°49' W 122°31'0 0.6
2017-Nov-16 00:00N 37°49' W 122°31'0 0.5
2017-Nov-15 23:31N 37°49' W 122°31'1 2.1
2017-Nov-15 23:00N 37°49' W 122°30'5 9.5
2017-Nov-15 22:30N 37°52' W 122°25'611.7
2017-Nov-15 21:59N 37°58' W 122°27'510.9
2017-Nov-15 21:30N 38°02' W 122°23'5 9.5
2017-Nov-15 20:59N 38°04' W 122°17'1 1.9
2017-Nov-15 20:30N 38°03' W 122°16'0 0.0
2017-Nov-15 20:00N 38°03' W 122°16'0 0.9
2017-Nov-15 19:30N 38°04' W 122°15'5 8.1
2017-Nov-15 18:54N 38°02' W 122°09'1 0.7
2017-Nov-15 17:25N 38°02' W 122°08'2 4.4
2017-Nov-15 16:59N 38°03' W 122°10'510.4
2017-Nov-15 16:28N 38°03' W 122°17'3 5.6
2017-Nov-15 16:00N 38°04' W 122°14'4 8.9
2017-Nov-15 15:30N 38°02' W 122°09'0 0.9
2017-Nov-15 15:00N 38°02' W 122°08'0 0.0
2017-Nov-15 14:30N 38°02' W 122°08'0 0.0
2017-Nov-15 14:00N 38°02' W 122°08'0 0.0
2017-Nov-15 13:30N 38°02' W 122°08'0 0.0
2017-Nov-15 12:58N 38°02' W 122°08'0 0.0
2017-Nov-15 12:30N 38°02' W 122°08'0 0.0
2017-Nov-15 12:00N 38°02' W 122°08'0 0.0
2017-Nov-15 11:30N 38°02' W 122°08'0 0.0
2017-Nov-15 10:59N 38°02' W 122°08'0 0.0
2017-Nov-15 10:30N 38°02' W 122°08'0 0.0
2017-Nov-15 09:59N 38°02' W 122°08'0 0.0
2017-Nov-15 09:29N 38°02' W 122°08'0 0.0
2017-Nov-15 09:00N 38°02' W 122°08'0 0.0
2017-Nov-15 08:27N 38°02' W 122°08'0 0.0
2017-Nov-15 07:58N 38°02' W 122°08'0 0.0
2017-Nov-15 07:27N 38°02' W 122°08'1 1.6
2017-Nov-15 07:00N 38°02' W 122°07'0 0.0
2017-Nov-15 06:28N 38°02' W 122°07'0 0.2
2017-Nov-15 06:00N 38°02' W 122°08'2 3.2
2017-Nov-15 05:15N 38°03' W 122°10'2 7.5
2017-Nov-15 04:59N 38°04' W 122°13'4 9.1
2017-Nov-15 04:30N 38°03' W 122°18'6 9.6
2017-Nov-15 03:54N 38°01' W 122°25'410.8
2017-Nov-15 03:30N 37°56' W 122°27'5 9.7
2017-Nov-15 03:00N 37°52' W 122°25'4 8.1
2017-Nov-15 02:30N 37°48' W 122°23'3 5.0
2017-Nov-15 02:00N 37°46' W 122°21'1 2.2
2017-Nov-15 01:30N 37°47' W 122°22'2 3.7
2017-Nov-15 01:00N 37°48' W 122°24'2 3.8
2017-Nov-15 00:30N 37°48' W 122°22'2 4.4
2017-Nov-15 00:01N 37°48' W 122°19'1 2.5
2017-Nov-14 23:31N 37°48' W 122°17'1 1.6
2017-Nov-14 23:01N 37°48' W 122°18'2 3.4
2017-Nov-14 22:30N 37°48' W 122°20'2 4.3
2017-Nov-14 22:01N 37°48' W 122°23'1 1.4
2017-Nov-14 21:30N 37°48' W 122°24'0 0.0
2017-Nov-14 21:00N 37°48' W 122°24'1 1.5
2017-Nov-14 20:30N 37°48' W 122°23'4 8.9
2017-Nov-14 20:01N 37°44' W 122°20'2 4.0
2017-Nov-14 19:31N 37°46' W 122°21'4 9.0
2017-Nov-14 19:00N 37°50' W 122°24'510.8
2017-Nov-14 18:30N 37°55' W 122°25'1 1.5
2017-Nov-14 18:00N 37°55' W 122°25'0 0.1
2017-Nov-14 17:30N 37°55' W 122°25'0 0.1
2017-Nov-14 17:00N 37°55' W 122°25'1 3.0
2017-Nov-14 16:30N 37°54' W 122°25'5 9.6
2017-Nov-14 16:00N 37°49' W 122°23'4 7.3
2017-Nov-14 15:30N 37°46' W 122°21'1 2.1
2017-Nov-14 15:00N 37°47' W 122°22'5 9.1
2017-Nov-14 14:30N 37°51' W 122°25'5 9.4
2017-Nov-14 14:00N 37°48' W 122°30'1 2.1
2017-Nov-14 13:31N 37°49' W 122°30'3 5.6
2017-Nov-14 13:00N 37°51' W 122°28'3 6.6
2017-Nov-14 12:30N 37°54' W 122°26'2 3.5
2017-Nov-14 12:01N 37°56' W 122°25'0 0.0
2017-Nov-14 11:30N 37°56' W 122°25'0 0.1
2017-Nov-14 11:00N 37°56' W 122°25'0 0.1
2017-Nov-14 10:30N 37°56' W 122°25'0 0.1
2017-Nov-14 10:00N 37°56' W 122°25'0 0.1
2017-Nov-14 09:30N 37°56' W 122°25'0 0.2
2017-Nov-14 09:01N 37°56' W 122°25'5 9.8
2017-Nov-14 08:30N 38°01' W 122°24'510.9
2017-Nov-14 08:00N 38°03' W 122°18'2 1.0
2017-Nov-14 06:08N 38°03' W 122°16'0 0.3
2017-Nov-14 05:58N 38°03' W 122°16'1 1.4
2017-Nov-14 05:21N 38°04' W 122°17'1 2.2
2017-Nov-14 05:00N 38°03' W 122°18'2 4.8
2017-Nov-14 04:30N 38°03' W 122°15'0 0.0
2017-Nov-14 04:00N 38°03' W 122°15'0 0.0
2017-Nov-14 03:30N 38°03' W 122°15'0 0.0
2017-Nov-14 03:00N 38°03' W 122°15'8 8.4
2017-Nov-14 01:59N 38°00' W 122°25'510.9
2017-Nov-14 01:30N 37°55' W 122°25'510.0
2017-Nov-14 01:00N 37°50' W 122°22'3 5.0
2017-Nov-14 00:31N 37°49' W 122°20'0 0.1
2017-Nov-14 00:01N 37°49' W 122°20'4 8.1
2017-Nov-13 23:30N 37°52' W 122°24'5 9.2
2017-Nov-13 23:00N 37°56' W 122°26'5 9.2
2017-Nov-13 22:29N 38°01' W 122°24'5 9.4
2017-Nov-13 22:00N 38°03' W 122°19'15 0.8
2017-Nov-13 02:00N 37°48' W 122°23'2 4.6
2017-Nov-13 01:30N 37°48' W 122°20'1 1.7
2017-Nov-13 01:01N 37°49' W 122°19'2 4.8
2017-Nov-13 00:30N 37°48' W 122°22'1 1.7
2017-Nov-13 00:00N 37°48' W 122°23'0 1.0
2017-Nov-12 23:31N 37°48' W 122°24'0 0.0
2017-Nov-12 23:01N 37°48' W 122°24'0 0.0
2017-Nov-12 22:30N 37°48' W 122°24'0 0.0
2017-Nov-12 22:00N 37°48' W 122°24'  
Track history (hours):
 
Tides and Currents Weather Stations Pressure Air Temp Water Temp Dewpoint Dewpoint Depression Visibility Wind Speed Wind Dir Waves Ship Positions

Delta Billie

Owner: Baydelta Maritime, San Francicso, CA. More information available from US FCC via Universal Licensing System and Coast Guard Vessel Documentation Center.

Last reported at 2017-Nov-22 21:55 UTC. Time now 2017-Nov-22 22:21 UTC.
Position N 38°03' W 122°11'.

Length 30 m; draft 5.5 m.

Type: Towing. MMSI: 367401030.

Date/timePositionNaut miles runAvg speedWind from/ knotsBaromVisibWave heightAir tempDewpointWater temp
2017-Nov-22 21:55N 38°03' W 122°11'511.7
2017-Nov-22 21:29N 38°03' W 122°18'611.3
2017-Nov-22 20:59N 38°01' W 122°24'511.1
2017-Nov-22 20:30N 37°55' W 122°26'1 1.1
2017-Nov-22 20:00N 37°56' W 122°25'3 6.3
2017-Nov-22 19:30N 37°52' W 122°25'  
2017-Nov-19 17:44N 38°02' W 122°08'1 4.5
2017-Nov-19 17:30N 38°02' W 122°10'1 2.3
2017-Nov-19 17:00N 38°02' W 122°08'0 0.0
2017-Nov-19 16:30N 38°02' W 122°08'0 0.0
2017-Nov-19 16:00N 38°02' W 122°08'0 0.0
2017-Nov-19 15:08N 38°02' W 122°08'0 0.1
2017-Nov-19 10:29N 38°02' W 122°08'0 0.3
2017-Nov-19 09:34N 38°02' W 122°08'0 0.0
2017-Nov-19 09:29N 38°02' W 122°08'0 0.0
2017-Nov-19 08:48N 38°02' W 122°08'0 0.0
2017-Nov-19 08:30N 38°02' W 122°08'0 0.0
2017-Nov-19 07:58N 38°02' W 122°08'0 0.0
2017-Nov-19 07:30N 38°02' W 122°08'1 1.1
2017-Nov-19 07:00N 38°02' W 122°08'0 0.0
2017-Nov-19 06:23N 38°02' W 122°08'2 2.9
2017-Nov-19 05:42N 38°02' W 122°10'2 8.3
2017-Nov-19 05:30N 38°03' W 122°12'4 8.1
2017-Nov-19 04:59N 38°03' W 122°17'510.1
2017-Nov-19 04:27N 38°01' W 122°23'510.4
2017-Nov-19 04:00N 37°57' W 122°27'510.3
2017-Nov-19 03:30N 37°52' W 122°25'4 7.8
2017-Nov-19 03:00N 37°49' W 122°28'2 3.9
2017-Nov-19 02:30N 37°48' W 122°30'0 0.9
2017-Nov-19 02:01N 37°48' W 122°30'0 0.1
2017-Nov-19 01:30N 37°48' W 122°30'1 2.2
2017-Nov-19 01:00N 37°48' W 122°30'3 6.6
2017-Nov-19 00:31N 37°51' W 122°28'3 5.3
2017-Nov-19 00:00N 37°54' W 122°26'5 7.9
2017-Nov-18 23:26N 37°58' W 122°26'4 8.6
2017-Nov-18 22:58N 38°01' W 122°23'3 7.2
2017-Nov-18 22:30N 38°03' W 122°19'5 9.7
2017-Nov-18 22:00N 38°04' W 122°13'4 3.3
2017-Nov-18 20:39N 38°02' W 122°08'0 2.5
2017-Nov-18 20:28N 38°02' W 122°08'2 5.3
2017-Nov-18 20:00N 38°03' W 122°11'5 9.8
2017-Nov-18 19:29N 38°03' W 122°17'6 9.0
2017-Nov-18 18:47N 38°01' W 122°25'311.3
2017-Nov-18 18:30N 37°58' W 122°27'510.7
2017-Nov-18 18:00N 37°53' W 122°25'4 7.8
2017-Nov-18 17:30N 37°49' W 122°28'2 4.3
2017-Nov-18 17:00N 37°48' W 122°30'0 0.3
2017-Nov-18 16:30N 37°48' W 122°30'3 6.0
2017-Nov-18 16:00N 37°49' W 122°26'2 4.1
2017-Nov-18 15:30N 37°48' W 122°24'0 0.0
2017-Nov-18 15:00N 37°48' W 122°24'0 0.0
2017-Nov-18 14:30N 37°48' W 122°24'0 0.0
2017-Nov-18 14:00N 37°48' W 122°24'0 0.0
2017-Nov-18 13:30N 37°48' W 122°24'0 0.0
2017-Nov-18 13:00N 37°48' W 122°24'0 0.0
2017-Nov-18 12:30N 37°48' W 122°24'0 0.0
2017-Nov-18 12:00N 37°48' W 122°24'0 0.0
2017-Nov-18 11:30N 37°48' W 122°24'0 0.0
2017-Nov-18 11:00N 37°48' W 122°24'0 0.0
2017-Nov-18 10:30N 37°48' W 122°24'0 0.0
2017-Nov-18 10:00N 37°48' W 122°24'0 0.0
2017-Nov-18 09:30N 37°48' W 122°24'0 0.0
2017-Nov-18 09:00N 37°48' W 122°24'0 0.0
2017-Nov-18 08:30N 37°48' W 122°24'0 0.0
2017-Nov-18 08:00N 37°48' W 122°24'0 0.0
2017-Nov-18 07:30N 37°48' W 122°24'0 0.0
2017-Nov-18 07:00N 37°48' W 122°24'0 0.0
2017-Nov-18 06:30N 37°48' W 122°24'0 0.0
2017-Nov-18 06:00N 37°48' W 122°24'0 0.0
2017-Nov-18 05:30N 37°48' W 122°24'0 0.0
2017-Nov-18 05:00N 37°48' W 122°24'0 0.0
2017-Nov-18 04:30N 37°48' W 122°24'0 0.0
2017-Nov-18 04:00N 37°48' W 122°24'0 0.0
2017-Nov-18 03:30N 37°48' W 122°24'0 0.0
2017-Nov-18 03:00N 37°48' W 122°24'0 0.0
2017-Nov-18 02:30N 37°48' W 122°24'0 0.0
2017-Nov-18 02:00N 37°48' W 122°24'3 5.1
2017-Nov-18 01:31N 37°48' W 122°21'2 4.9
2017-Nov-18 01:00N 37°48' W 122°18'0 0.1
2017-Nov-18 00:31N 37°48' W 122°18'1 1.0
2017-Nov-18 00:01N 37°48' W 122°18'2 3.0
2017-Nov-17 23:30N 37°48' W 122°20'3 5.8
2017-Nov-17 23:00N 37°48' W 122°24'0 0.0
2017-Nov-17 22:30N 37°48' W 122°24'0 0.0
2017-Nov-17 22:00N 37°48' W 122°24'0 0.0
2017-Nov-17 21:30N 37°48' W 122°24'0 0.0
2017-Nov-17 21:00N 37°48' W 122°24'0 0.0
2017-Nov-17 20:30N 37°48' W 122°24'0 0.0
2017-Nov-17 20:00N 37°48' W 122°24'0 0.0
2017-Nov-17 19:30N 37°48' W 122°24'0 0.0
2017-Nov-17 19:00N 37°48' W 122°24'0 0.0
2017-Nov-17 18:30N 37°48' W 122°24'0 0.0
2017-Nov-17 18:00N 37°48' W 122°24'0 0.0
2017-Nov-17 17:30N 37°48' W 122°24'0 0.0
2017-Nov-17 17:00N 37°48' W 122°24'0 0.0
2017-Nov-17 16:30N 37°48' W 122°24'0 0.0
2017-Nov-17 16:00N 37°48' W 122°24'2 3.5
2017-Nov-17 15:30N 37°50' W 122°24'4 8.6
2017-Nov-17 15:00N 37°54' W 122°25'3 5.3
2017-Nov-17 14:30N 37°55' W 122°22'0 0.0
2017-Nov-17 13:58N 37°55' W 122°22'0 0.0
2017-Nov-17 13:30N 37°55' W 122°22'0 0.0
2017-Nov-17 13:00N 37°55' W 122°22'0 0.0
2017-Nov-17 12:30N 37°55' W 122°22'0 0.4
2017-Nov-17 12:00N 37°55' W 122°22'0 0.2
2017-Nov-17 11:30N 37°55' W 122°22'0 0.0
2017-Nov-17 11:00N 37°55' W 122°22'0 0.0
2017-Nov-17 10:30N 37°55' W 122°22'0 0.0
2017-Nov-17 10:00N 37°55' W 122°22'0 0.0
2017-Nov-17 09:30N 37°55' W 122°22'0 0.0
2017-Nov-17 09:00N 37°55' W 122°22'0 0.0
2017-Nov-17 08:30N 37°55' W 122°22'0 0.0
2017-Nov-17 08:00N 37°55' W 122°22'0 0.0
2017-Nov-17 07:30N 37°55' W 122°22'0 0.0
2017-Nov-17 07:00N 37°55' W 122°22'0 0.0
2017-Nov-17 06:30N 37°55' W 122°22'3 6.3
2017-Nov-17 06:00N 37°53' W 122°25'5 9.3
2017-Nov-17 05:30N 37°48' W 122°24'0 0.0
2017-Nov-17 05:00N 37°48' W 122°24'0 0.0
2017-Nov-17 04:30N 37°48' W 122°24'0 0.0
2017-Nov-17 04:00N 37°48' W 122°24'0 0.0
2017-Nov-17 03:30N 37°48' W 122°24'0 0.0
2017-Nov-17 03:00N 37°48' W 122°24'0 0.0
2017-Nov-17 02:30N 37°48' W 122°24'0 0.0
2017-Nov-17 02:00N 37°48' W 122°24'0 0.0
2017-Nov-17 01:30N 37°48' W 122°24'0 0.0
2017-Nov-17 01:00N 37°48' W 122°24'0 0.0
2017-Nov-17 00:30N 37°48' W 122°24'0 0.0
2017-Nov-17 00:00N 37°48' W 122°24'0 0.0
2017-Nov-16 23:30N 37°48' W 122°24'0 0.0
2017-Nov-16 23:00N 37°48' W 122°24'0 0.0
2017-Nov-16 22:30N 37°48' W 122°24'0 0.0
2017-Nov-16 22:00N 37°48' W 122°24'0 0.0
2017-Nov-16 21:30N 37°48' W 122°24'0 0.0
2017-Nov-16 21:00N 37°48' W 122°24'0 0.0
2017-Nov-16 20:30N 37°48' W 122°24'0 0.0
2017-Nov-16 20:00N 37°48' W 122°24'0 0.0
2017-Nov-16 19:30N 37°48' W 122°24'0 0.0
2017-Nov-16 19:00N 37°48' W 122°24'0 0.0
2017-Nov-16 18:30N 37°48' W 122°24'0 0.1
2017-Nov-16 18:00N 37°48' W 122°24'0 0.1
2017-Nov-16 17:30N 37°48' W 122°24'0 0.0
2017-Nov-16 17:00N 37°48' W 122°24'0 0.0
2017-Nov-16 16:30N 37°48' W 122°24'0 0.0
2017-Nov-16 16:00N 37°48' W 122°24'0 0.0
2017-Nov-16 15:30N 37°48' W 122°24'0 0.0
2017-Nov-16 15:00N 37°48' W 122°24'0 0.0
2017-Nov-16 14:30N 37°48' W 122°24'0 0.0
2017-Nov-16 14:00N 37°48' W 122°24'0 0.0
2017-Nov-16 13:30N 37°48' W 122°24'1 1.5
2017-Nov-16 13:01N 37°48' W 122°23'3 6.8
2017-Nov-16 12:30N 37°48' W 122°19'1 1.7
2017-Nov-16 12:00N 37°48' W 122°20'3 5.7
2017-Nov-16 11:30N 37°48' W 122°23'1 1.0
2017-Nov-16 11:00N 37°48' W 122°24'0 0.0
2017-Nov-16 10:30N 37°48' W 122°24'0 0.0
2017-Nov-16 10:00N 37°48' W 122°24'0 0.0
2017-Nov-16 09:30N 37°48' W 122°24'0 0.0
2017-Nov-16 09:00N 37°48' W 122°24'0 0.0
2017-Nov-16 08:30N 37°48' W 122°24'0 0.0
2017-Nov-16 08:00N 37°48' W 122°24'4 8.6
2017-Nov-16 07:30N 37°52' W 122°24'8 9.1
2017-Nov-16 06:40N 38°00' W 122°25'1 9.4
2017-Nov-16 06:30N 38°01' W 122°23'5 9.1
2017-Nov-16 06:00N 38°03' W 122°18'2 3.8
2017-Nov-16 05:30N 38°03' W 122°16'0 0.0
2017-Nov-16 05:00N 38°03' W 122°16'0 0.0
2017-Nov-16 04:30N 38°03' W 122°16'1 2.7
2017-Nov-16 03:58N 38°03' W 122°18'510.6
2017-Nov-16 03:27N 38°01' W 122°24'511.0
2017-Nov-16 02:59N 37°56' W 122°27'510.3
2017-Nov-16 02:30N 37°52' W 122°25'3 7.0
2017-Nov-16 02:00N 37°49' W 122°28'3 5.8
2017-Nov-16 01:30N 37°49' W 122°31'0 0.4
2017-Nov-16 01:00N 37°49' W 122°31'0 0.6
2017-Nov-16 00:30N 37°49' W 122°31'0 0.6
2017-Nov-16 00:00N 37°49' W 122°31'0 0.5
2017-Nov-15 23:31N 37°49' W 122°31'1 2.1
2017-Nov-15 23:00N 37°49' W 122°30'5 9.5
2017-Nov-15 22:30N 37°52' W 122°25'611.7
2017-Nov-15 21:59N 37°58' W 122°27'510.9
2017-Nov-15 21:30N 38°02' W 122°23'5 9.5
2017-Nov-15 20:59N 38°04' W 122°17'1 1.9
2017-Nov-15 20:30N 38°03' W 122°16'0 0.0
2017-Nov-15 20:00N 38°03' W 122°16'0 0.9
2017-Nov-15 19:30N 38°04' W 122°15'5 8.1
2017-Nov-15 18:54N 38°02' W 122°09'1 0.7
2017-Nov-15 17:25N 38°02' W 122°08'2 4.4
2017-Nov-15 16:59N 38°03' W 122°10'510.4
2017-Nov-15 16:28N 38°03' W 122°17'3 5.6
2017-Nov-15 16:00N 38°04' W 122°14'4 8.9
2017-Nov-15 15:30N 38°02' W 122°09'0 0.9
2017-Nov-15 15:00N 38°02' W 122°08'0 0.0
2017-Nov-15 14:30N 38°02' W 122°08'0 0.0
2017-Nov-15 14:00N 38°02' W 122°08'0 0.0
2017-Nov-15 13:30N 38°02' W 122°08'0 0.0
2017-Nov-15 12:58N 38°02' W 122°08'0 0.0
2017-Nov-15 12:30N 38°02' W 122°08'0 0.0
2017-Nov-15 12:00N 38°02' W 122°08'0 0.0
2017-Nov-15 11:30N 38°02' W 122°08'0 0.0
2017-Nov-15 10:59N 38°02' W 122°08'0 0.0
2017-Nov-15 10:30N 38°02' W 122°08'0 0.0
2017-Nov-15 09:59N 38°02' W 122°08'0 0.0
2017-Nov-15 09:29N 38°02' W 122°08'0 0.0
2017-Nov-15 09:00N 38°02' W 122°08'0 0.0
2017-Nov-15 08:27N 38°02' W 122°08'0 0.0
2017-Nov-15 07:58N 38°02' W 122°08'0 0.0
2017-Nov-15 07:27N 38°02' W 122°08'1 1.6
2017-Nov-15 07:00N 38°02' W 122°07'0 0.0
2017-Nov-15 06:28N 38°02' W 122°07'0 0.2
2017-Nov-15 06:00N 38°02' W 122°08'2 3.2
2017-Nov-15 05:15N 38°03' W 122°10'2 7.5
2017-Nov-15 04:59N 38°04' W 122°13'4 9.1
2017-Nov-15 04:30N 38°03' W 122°18'6 9.6
2017-Nov-15 03:54N 38°01' W 122°25'410.8
2017-Nov-15 03:30N 37°56' W 122°27'5 9.7
2017-Nov-15 03:00N 37°52' W 122°25'4 8.1
2017-Nov-15 02:30N 37°48' W 122°23'3 5.0
2017-Nov-15 02:00N 37°46' W 122°21'1 2.2
2017-Nov-15 01:30N 37°47' W 122°22'2 3.7
2017-Nov-15 01:00N 37°48' W 122°24'2 3.8
2017-Nov-15 00:30N 37°48' W 122°22'2 4.4
2017-Nov-15 00:01N 37°48' W 122°19'1 2.5
2017-Nov-14 23:31N 37°48' W 122°17'1 1.6
2017-Nov-14 23:01N 37°48' W 122°18'2 3.4
2017-Nov-14 22:30N 37°48' W 122°20'2 4.3
2017-Nov-14 22:01N 37°48' W 122°23'1 1.4
2017-Nov-14 21:30N 37°48' W 122°24'0 0.0
2017-Nov-14 21:00N 37°48' W 122°24'1 1.5
2017-Nov-14 20:30N 37°48' W 122°23'4 8.9
2017-Nov-14 20:01N 37°44' W 122°20'2 4.0
2017-Nov-14 19:31N 37°46' W 122°21'4 9.0
2017-Nov-14 19:00N 37°50' W 122°24'510.8
2017-Nov-14 18:30N 37°55' W 122°25'1 1.5
2017-Nov-14 18:00N 37°55' W 122°25'0 0.1
2017-Nov-14 17:30N 37°55' W 122°25'0 0.1
2017-Nov-14 17:00N 37°55' W 122°25'1 3.0
2017-Nov-14 16:30N 37°54' W 122°25'5 9.6
2017-Nov-14 16:00N 37°49' W 122°23'4 7.3
2017-Nov-14 15:30N 37°46' W 122°21'1 2.1
2017-Nov-14 15:00N 37°47' W 122°22'5 9.1
2017-Nov-14 14:30N 37°51' W 122°25'5 9.4
2017-Nov-14 14:00N 37°48' W 122°30'1 2.1
2017-Nov-14 13:31N 37°49' W 122°30'3 5.6
2017-Nov-14 13:00N 37°51' W 122°28'3 6.6
2017-Nov-14 12:30N 37°54' W 122°26'2 3.5
2017-Nov-14 12:01N 37°56' W 122°25'0 0.0
2017-Nov-14 11:30N 37°56' W 122°25'0 0.1
2017-Nov-14 11:00N 37°56' W 122°25'0 0.1
2017-Nov-14 10:30N 37°56' W 122°25'0 0.1
2017-Nov-14 10:00N 37°56' W 122°25'0 0.1
2017-Nov-14 09:30N 37°56' W 122°25'0 0.2
2017-Nov-14 09:01N 37°56' W 122°25'5 9.8
2017-Nov-14 08:30N 38°01' W 122°24'510.9
2017-Nov-14 08:00N 38°03' W 122°18'2 1.0
2017-Nov-14 06:08N 38°03' W 122°16'0 0.3
2017-Nov-14 05:58N 38°03' W 122°16'1 1.4
2017-Nov-14 05:21N 38°04' W 122°17'1 2.2
2017-Nov-14 05:00N 38°03' W 122°18'2 4.8
2017-Nov-14 04:30N 38°03' W 122°15'0 0.0
2017-Nov-14 04:00N 38°03' W 122°15'0 0.0
2017-Nov-14 03:30N 38°03' W 122°15'0 0.0
2017-Nov-14 03:00N 38°03' W 122°15'8 8.4
2017-Nov-14 01:59N 38°00' W 122°25'510.9
2017-Nov-14 01:30N 37°55' W 122°25'510.0
2017-Nov-14 01:00N 37°50' W 122°22'3 5.0
2017-Nov-14 00:31N 37°49' W 122°20'0 0.1
2017-Nov-14 00:01N 37°49' W 122°20'4 8.1
2017-Nov-13 23:30N 37°52' W 122°24'5 9.2
2017-Nov-13 23:00N 37°56' W 122°26'5 9.2
2017-Nov-13 22:29N 38°01' W 122°24'5 9.4
2017-Nov-13 22:00N 38°03' W 122°19'15 0.8
2017-Nov-13 02:00N 37°48' W 122°23'2 4.6
2017-Nov-13 01:30N 37°48' W 122°20'1 1.7
2017-Nov-13 01:01N 37°49' W 122°19'2 4.8
2017-Nov-13 00:30N 37°48' W 122°22'1 1.7
2017-Nov-13 00:00N 37°48' W 122°23'0 1.0
2017-Nov-12 23:31N 37°48' W 122°24'0 0.0
2017-Nov-12 23:01N 37°48' W 122°24'0 0.0
2017-Nov-12 22:30N 37°48' W 122°24'0 0.0
2017-Nov-12 22:00N 37°48' W 122°24'  

Dump ship's entire track history